Sault Ste Marie, MI

2:42 PM EST on December 04, 2016 (GMT -0500)
NOS_NWLON | | Change Station
Active Advisory: Winter Weather Advisory

Elev 609 ft 46.50 °N, 84.37 °W | Updated 36 minutes ago

Light Snow
Light Snow Mist
33 °F
Feels Like 26 °F
N
9
Wind Variable Wind from ESE
Gusts 0.0 mph

Today
High -- | Low -- °F
--% Chance of Precip.
Yesterday
High -- | Low -- °F
Precip. -- in
Pressure 30.03 in
Visibility 2.0 miles
Clouds Overcast 1000 ft
Windchill 26 °F
Dew Point Not available.
Humidity Not available.
Rainfall in
Snow Depth Not available.
8:04 AM 4:50 PM
Waxing Crescent, 25% visible
SPECI KANJ 041925Z AUTO 11010G16KT 2SM -SN BR OVC010 01/M01 A3003 RMK AO2 P0000 T00061011
Pressure 30.03 in
Visibility 2.0 miles
Clouds Overcast 1000 ft
Windchill 26 °F
Dew Point Not available.
Humidity Not available.
Rainfall in
Snow Depth Not available.
8:04 AM 4:50 PM
Waxing Crescent, 25% visible
SPECI KANJ 041925Z AUTO 11010G16KT 2SM -SN BR OVC010 01/M01 A3003 RMK AO2 P0000 T00061011

10-Day Weather Forecast

Almanac

Astronomy

Dec. 04, 2016 Rise Set
Actual Time
Civil Twilight
Nautical Twilight
Astronomical Twilight
Moon
Length of Visible Light
Length of Day
Tomorrow will be .
, % of the Moon is Illuminated

Today's Extremes

State Highs State Lows

Community

WunderPhotos

Upload Photos

1,955,652 photos uploaded!

WunderBlog® & News

Nearby

Air Quality

  Air Quality AQ Index Pollutant
Not available.

Snow Depth

Station Depth Elevation

Earthquake Activity

City Distance Mag. Time & Date
Minimum magnitude displayed is 2.5.

Coastal Water Temperatures

Place Temperature

Stations

Nearby Weather Stations

Station Location Temp. Windchill Dew Point Humidity Wind Precip. Elev Updated Type
                   

Watches & Warnings

Winter Weather Advisory
Issued: 10:11 AM EST Dec. 4, 2016 – National Weather Service

... Winter Weather Advisory in effect until 4 am EST Monday...

The National Weather Service in Gaylord has issued a Winter
Weather Advisory... which is in effect until 4 am EST Monday.

* Numerous snow showers this morning will become enhanced as
system snows sweep over the region this afternoon and tonight.

* The heaviest snowfall rates will occur between 7 PM this
evening and 1 am Monday.

* Total snow accumulations of 3 to 5 inches. Locally higher.

* Look for reduced visibilities at times.

* Plan on slippery Road conditions.

Precautionary/preparedness actions...

A Winter Weather Advisory for snow means periods of snow will
cause primarily travel difficulties. Be prepared for snow covered
roads and limited visibilities... and use caution while driving.
For the latest Road conditions... go to the mdot website at
Michigan.Gov.


Smd